sensor_id;sensor_type;location;lat;lon;timestamp;P1;durP1;ratioP1;P2;durP2;ratioP2
57483;SDS011;65488;43.212;0.096;2022-12-24T00:01:02;14.77;;;8.05;;
57483;SDS011;65488;43.212;0.096;2022-12-24T00:03:28;16.10;;;10.32;;
57483;SDS011;65488;43.212;0.096;2022-12-24T00:05:53;27.63;;;14.13;;
57483;SDS011;65488;43.212;0.096;2022-12-24T00:08:18;33.55;;;17.90;;
57483;SDS011;65488;43.212;0.096;2022-12-24T00:10:44;40.80;;;20.67;;
57483;SDS011;65488;43.212;0.096;2022-12-24T00:13:09;31.58;;;15.32;;
57483;SDS011;65488;43.212;0.096;2022-12-24T00:15:34;33.17;;;16.63;;
57483;SDS011;65488;43.212;0.096;2022-12-24T00:18:00;38.22;;;18.23;;
57483;SDS011;65488;43.212;0.096;2022-12-24T00:20:25;30.50;;;15.35;;
57483;SDS011;65488;43.212;0.096;2022-12-24T00:22:50;35.75;;;19.58;;
57483;SDS011;65488;43.212;0.096;2022-12-24T00:25:15;52.45;;;25.83;;
57483;SDS011;65488;43.212;0.096;2022-12-24T00:27:41;49.65;;;23.38;;
57483;SDS011;65488;43.212;0.096;2022-12-24T00:30:06;52.95;;;26.08;;
57483;SDS011;65488;43.212;0.096;2022-12-24T00:32:31;60.22;;;29.30;;
57483;SDS011;65488;43.212;0.096;2022-12-24T00:34:57;56.35;;;29.70;;
57483;SDS011;65488;43.212;0.096;2022-12-24T00:37:22;59.97;;;30.83;;
57483;SDS011;65488;43.212;0.096;2022-12-24T00:39:47;30.02;;;15.35;;
57483;SDS011;65488;43.212;0.096;2022-12-24T00:42:13;21.25;;;10.98;;
57483;SDS011;65488;43.212;0.096;2022-12-24T00:44:38;23.45;;;12.07;;
57483;SDS011;65488;43.212;0.096;2022-12-24T00:47:03;15.43;;;9.32;;
57483;SDS011;65488;43.212;0.096;2022-12-24T00:49:28;13.48;;;7.38;;
57483;SDS011;65488;43.212;0.096;2022-12-24T00:51:54;9.45;;;6.38;;
57483;SDS011;65488;43.212;0.096;2022-12-24T00:54:19;14.77;;;7.38;;
57483;SDS011;65488;43.212;0.096;2022-12-24T00:56:44;12.27;;;7.05;;
57483;SDS011;65488;43.212;0.096;2022-12-24T00:59:09;15.52;;;8.07;;
57483;SDS011;65488;43.212;0.096;2022-12-24T01:01:35;15.07;;;7.95;;
57483;SDS011;65488;43.212;0.096;2022-12-24T01:04:00;11.15;;;6.43;;
57483;SDS011;65488;43.212;0.096;2022-12-24T01:06:44;10.93;;;6.60;;
57483;SDS011;65488;43.212;0.096;2022-12-24T01:09:10;11.77;;;6.80;;
57483;SDS011;65488;43.212;0.096;2022-12-24T01:11:35;12.27;;;7.10;;
57483;SDS011;65488;43.212;0.096;2022-12-24T01:14:00;10.90;;;6.28;;
57483;SDS011;65488;43.212;0.096;2022-12-24T01:16:26;9.40;;;5.22;;
57483;SDS011;65488;43.212;0.096;2022-12-24T01:18:51;11.13;;;5.90;;
57483;SDS011;65488;43.212;0.096;2022-12-24T01:21:17;8.95;;;5.35;;
57483;SDS011;65488;43.212;0.096;2022-12-24T01:23:42;9.90;;;5.78;;
57483;SDS011;65488;43.212;0.096;2022-12-24T01:26:08;9.98;;;5.50;;
57483;SDS011;65488;43.212;0.096;2022-12-24T01:28:36;9.07;;;5.05;;
57483;SDS011;65488;43.212;0.096;2022-12-24T01:31:01;7.63;;;4.60;;
57483;SDS011;65488;43.212;0.096;2022-12-24T01:33:27;7.43;;;4.85;;
57483;SDS011;65488;43.212;0.096;2022-12-24T01:35:53;5.63;;;4.57;;
57483;SDS011;65488;43.212;0.096;2022-12-24T01:38:18;7.32;;;4.43;;
57483;SDS011;65488;43.212;0.096;2022-12-24T01:40:43;6.30;;;3.80;;
57483;SDS011;65488;43.212;0.096;2022-12-24T01:43:28;5.22;;;3.50;;
57483;SDS011;65488;43.212;0.096;2022-12-24T01:45:54;7.07;;;4.25;;
57483;SDS011;65488;43.212;0.096;2022-12-24T01:50:45;7.15;;;3.90;;
57483;SDS011;65488;43.212;0.096;2022-12-24T01:53:11;9.35;;;3.88;;
57483;SDS011;65488;43.212;0.096;2022-12-24T01:55:38;6.20;;;4.20;;
57483;SDS011;65488;43.212;0.096;2022-12-24T01:58:03;8.57;;;4.45;;
57483;SDS011;65488;43.212;0.096;2022-12-24T02:00:30;9.05;;;4.80;;
57483;SDS011;65488;43.212;0.096;2022-12-24T02:02:55;11.07;;;4.88;;
57483;SDS011;65488;43.212;0.096;2022-12-24T02:07:49;8.40;;;4.78;;
57483;SDS011;65488;43.212;0.096;2022-12-24T02:10:15;10.70;;;4.93;;
57483;SDS011;65488;43.212;0.096;2022-12-24T02:12:40;8.23;;;4.43;;
57483;SDS011;65488;43.212;0.096;2022-12-24T02:15:07;9.13;;;4.80;;
57483;SDS011;65488;43.212;0.096;2022-12-24T02:25:09;10.30;;;5.18;;
57483;SDS011;65488;43.212;0.096;2022-12-24T02:27:43;9.43;;;4.50;;
57483;SDS011;65488;43.212;0.096;2022-12-24T02:30:13;9.90;;;5.32;;
57483;SDS011;65488;43.212;0.096;2022-12-24T02:35:15;10.65;;;5.65;;
57483;SDS011;65488;43.212;0.096;2022-12-24T02:37:44;12.07;;;5.80;;
57483;SDS011;65488;43.212;0.096;2022-12-24T02:40:14;7.70;;;3.53;;
57483;SDS011;65488;43.212;0.096;2022-12-24T02:42:41;8.18;;;4.32;;
57483;SDS011;65488;43.212;0.096;2022-12-24T02:45:08;11.23;;;5.45;;
57483;SDS011;65488;43.212;0.096;2022-12-24T02:47:35;11.27;;;5.00;;
57483;SDS011;65488;43.212;0.096;2022-12-24T02:50:00;11.30;;;5.38;;
57483;SDS011;65488;43.212;0.096;2022-12-24T02:52:27;11.35;;;4.78;;
57483;SDS011;65488;43.212;0.096;2022-12-24T02:54:52;7.60;;;4.20;;
57483;SDS011;65488;43.212;0.096;2022-12-24T02:57:25;6.43;;;3.53;;
57483;SDS011;65488;43.212;0.096;2022-12-24T03:04:56;7.28;;;3.50;;
57483;SDS011;65488;43.212;0.096;2022-12-24T03:12:30;7.25;;;4.32;;
57483;SDS011;65488;43.212;0.096;2022-12-24T03:14:58;4.43;;;3.30;;
57483;SDS011;65488;43.212;0.096;2022-12-24T03:17:23;5.07;;;2.90;;
57483;SDS011;65488;43.212;0.096;2022-12-24T03:19:49;4.97;;;2.70;;
57483;SDS011;65488;43.212;0.096;2022-12-24T03:22:14;3.65;;;2.78;;
57483;SDS011;65488;43.212;0.096;2022-12-24T03:24:41;7.75;;;2.95;;
57483;SDS011;65488;43.212;0.096;2022-12-24T03:27:06;4.85;;;2.95;;
57483;SDS011;65488;43.212;0.096;2022-12-24T03:29:32;5.60;;;3.15;;
57483;SDS011;65488;43.212;0.096;2022-12-24T03:31:59;5.78;;;3.22;;
57483;SDS011;65488;43.212;0.096;2022-12-24T03:34:25;8.10;;;3.38;;
57483;SDS011;65488;43.212;0.096;2022-12-24T03:36:50;7.57;;;3.20;;
57483;SDS011;65488;43.212;0.096;2022-12-24T03:39:16;6.55;;;3.40;;
57483;SDS011;65488;43.212;0.096;2022-12-24T03:41:41;10.73;;;3.72;;
57483;SDS011;65488;43.212;0.096;2022-12-24T03:44:06;5.03;;;3.22;;
57483;SDS011;65488;43.212;0.096;2022-12-24T03:46:31;7.53;;;3.50;;
57483;SDS011;65488;43.212;0.096;2022-12-24T03:48:57;7.40;;;3.60;;
57483;SDS011;65488;43.212;0.096;2022-12-24T03:51:23;8.77;;;3.55;;
57483;SDS011;65488;43.212;0.096;2022-12-24T03:53:48;4.00;;;2.95;;
57483;SDS011;65488;43.212;0.096;2022-12-24T03:56:15;5.88;;;3.38;;
57483;SDS011;65488;43.212;0.096;2022-12-24T03:58:40;4.82;;;3.55;;
57483;SDS011;65488;43.212;0.096;2022-12-24T04:01:06;7.45;;;3.10;;
57483;SDS011;65488;43.212;0.096;2022-12-24T04:03:31;4.05;;;2.70;;
57483;SDS011;65488;43.212;0.096;2022-12-24T04:06:03;5.75;;;2.70;;
57483;SDS011;65488;43.212;0.096;2022-12-24T04:08:29;5.10;;;3.05;;
57483;SDS011;65488;43.212;0.096;2022-12-24T04:10:54;4.50;;;2.50;;
57483;SDS011;65488;43.212;0.096;2022-12-24T04:13:19;3.25;;;2.20;;
57483;SDS011;65488;43.212;0.096;2022-12-24T04:15:44;3.47;;;2.40;;
57483;SDS011;65488;43.212;0.096;2022-12-24T04:18:10;3.22;;;2.28;;
57483;SDS011;65488;43.212;0.096;2022-12-24T04:20:35;4.43;;;3.05;;
57483;SDS011;65488;43.212;0.096;2022-12-24T04:23:00;6.97;;;4.45;;
57483;SDS011;65488;43.212;0.096;2022-12-24T04:25:26;7.10;;;5.15;;
57483;SDS011;65488;43.212;0.096;2022-12-24T04:27:51;6.38;;;4.28;;
57483;SDS011;65488;43.212;0.096;2022-12-24T04:30:16;6.05;;;3.47;;
57483;SDS011;65488;43.212;0.096;2022-12-24T04:32:41;4.88;;;3.40;;
57483;SDS011;65488;43.212;0.096;2022-12-24T04:35:07;5.90;;;3.15;;
57483;SDS011;65488;43.212;0.096;2022-12-24T04:37:33;6.03;;;2.80;;
57483;SDS011;65488;43.212;0.096;2022-12-24T04:39:58;6.93;;;2.80;;
57483;SDS011;65488;43.212;0.096;2022-12-24T04:42:23;4.85;;;2.70;;
57483;SDS011;65488;43.212;0.096;2022-12-24T04:44:49;6.10;;;2.85;;
57483;SDS011;65488;43.212;0.096;2022-12-24T04:47:14;5.35;;;2.60;;
57483;SDS011;65488;43.212;0.096;2022-12-24T04:49:39;4.13;;;2.20;;
57483;SDS011;65488;43.212;0.096;2022-12-24T04:52:05;4.45;;;2.13;;
57483;SDS011;65488;43.212;0.096;2022-12-24T04:54:30;5.18;;;2.40;;
57483;SDS011;65488;43.212;0.096;2022-12-24T04:56:55;4.15;;;2.13;;
57483;SDS011;65488;43.212;0.096;2022-12-24T04:59:20;6.60;;;2.33;;
57483;SDS011;65488;43.212;0.096;2022-12-24T05:01:46;8.57;;;3.75;;
57483;SDS011;65488;43.212;0.096;2022-12-24T05:04:11;9.68;;;3.88;;
57483;SDS011;65488;43.212;0.096;2022-12-24T05:06:36;11.50;;;5.13;;
57483;SDS011;65488;43.212;0.096;2022-12-24T05:09:02;8.13;;;3.63;;
57483;SDS011;65488;43.212;0.096;2022-12-24T05:11:27;4.90;;;2.83;;
57483;SDS011;65488;43.212;0.096;2022-12-24T05:13:52;5.50;;;2.60;;
57483;SDS011;65488;43.212;0.096;2022-12-24T05:16:19;4.22;;;2.40;;
57483;SDS011;65488;43.212;0.096;2022-12-24T05:18:44;3.47;;;2.60;;
57483;SDS011;65488;43.212;0.096;2022-12-24T05:21:11;4.97;;;2.90;;
57483;SDS011;65488;43.212;0.096;2022-12-24T05:23:37;5.47;;;2.88;;
57483;SDS011;65488;43.212;0.096;2022-12-24T05:28:50;5.88;;;2.50;;
57483;SDS011;65488;43.212;0.096;2022-12-24T05:31:15;5.10;;;3.28;;
57483;SDS011;65488;43.212;0.096;2022-12-24T05:33:41;4.05;;;3.03;;
57483;SDS011;65488;43.212;0.096;2022-12-24T05:36:06;3.40;;;2.53;;
57483;SDS011;65488;43.212;0.096;2022-12-24T05:38:31;5.72;;;2.67;;
57483;SDS011;65488;43.212;0.096;2022-12-24T05:40:57;3.83;;;2.30;;
57483;SDS011;65488;43.212;0.096;2022-12-24T05:43:22;4.13;;;2.70;;
57483;SDS011;65488;43.212;0.096;2022-12-24T05:45:47;3.33;;;2.40;;
57483;SDS011;65488;43.212;0.096;2022-12-24T05:48:12;2.88;;;2.13;;
57483;SDS011;65488;43.212;0.096;2022-12-24T05:50:38;3.83;;;2.22;;
57483;SDS011;65488;43.212;0.096;2022-12-24T05:53:04;2.95;;;2.22;;
57483;SDS011;65488;43.212;0.096;2022-12-24T05:55:29;3.38;;;2.42;;
57483;SDS011;65488;43.212;0.096;2022-12-24T05:57:55;4.60;;;2.40;;
57483;SDS011;65488;43.212;0.096;2022-12-24T06:00:20;3.25;;;2.33;;
57483;SDS011;65488;43.212;0.096;2022-12-24T06:02:45;3.33;;;2.05;;
57483;SDS011;65488;43.212;0.096;2022-12-24T06:05:11;3.63;;;2.17;;
57483;SDS011;65488;43.212;0.096;2022-12-24T06:07:36;7.25;;;2.67;;
57483;SDS011;65488;43.212;0.096;2022-12-24T06:10:01;3.53;;;2.50;;
57483;SDS011;65488;43.212;0.096;2022-12-24T06:12:26;3.20;;;2.47;;
57483;SDS011;65488;43.212;0.096;2022-12-24T06:14:52;4.25;;;2.45;;
57483;SDS011;65488;43.212;0.096;2022-12-24T06:17:17;4.40;;;2.60;;
57483;SDS011;65488;43.212;0.096;2022-12-24T06:19:42;2.83;;;2.38;;
57483;SDS011;65488;43.212;0.096;2022-12-24T06:22:08;3.78;;;2.50;;
57483;SDS011;65488;43.212;0.096;2022-12-24T06:24:33;5.82;;;2.83;;
57483;SDS011;65488;43.212;0.096;2022-12-24T06:26:58;3.70;;;2.97;;
57483;SDS011;65488;43.212;0.096;2022-12-24T06:29:24;5.90;;;3.28;;
57483;SDS011;65488;43.212;0.096;2022-12-24T06:31:49;6.65;;;3.80;;
57483;SDS011;65488;43.212;0.096;2022-12-24T06:34:14;4.45;;;3.03;;
57483;SDS011;65488;43.212;0.096;2022-12-24T06:36:40;5.88;;;3.50;;
57483;SDS011;65488;43.212;0.096;2022-12-24T06:39:05;4.10;;;2.88;;
57483;SDS011;65488;43.212;0.096;2022-12-24T06:41:30;4.22;;;2.88;;
57483;SDS011;65488;43.212;0.096;2022-12-24T06:43:55;3.63;;;2.75;;
57483;SDS011;65488;43.212;0.096;2022-12-24T06:46:21;4.03;;;2.83;;
57483;SDS011;65488;43.212;0.096;2022-12-24T06:48:47;11.38;;;3.72;;
57483;SDS011;65488;43.212;0.096;2022-12-24T06:51:13;6.20;;;3.72;;
57483;SDS011;65488;43.212;0.096;2022-12-24T06:53:38;8.55;;;4.40;;
57483;SDS011;65488;43.212;0.096;2022-12-24T06:56:09;6.72;;;5.15;;
57483;SDS011;65488;43.212;0.096;2022-12-24T06:58:35;8.88;;;5.60;;
57483;SDS011;65488;43.212;0.096;2022-12-24T07:01:00;12.60;;;7.88;;
57483;SDS011;65488;43.212;0.096;2022-12-24T07:03:26;18.17;;;10.85;;
57483;SDS011;65488;43.212;0.096;2022-12-24T07:05:52;16.08;;;9.10;;
57483;SDS011;65488;43.212;0.096;2022-12-24T07:08:18;15.70;;;9.23;;
57483;SDS011;65488;43.212;0.096;2022-12-24T07:10:43;14.30;;;7.88;;
57483;SDS011;65488;43.212;0.096;2022-12-24T07:13:08;16.35;;;9.68;;
57483;SDS011;65488;43.212;0.096;2022-12-24T07:15:33;16.98;;;8.57;;
57483;SDS011;65488;43.212;0.096;2022-12-24T07:17:59;10.60;;;6.75;;
57483;SDS011;65488;43.212;0.096;2022-12-24T07:20:24;13.18;;;7.05;;
57483;SDS011;65488;43.212;0.096;2022-12-24T07:22:49;22.35;;;11.30;;
57483;SDS011;65488;43.212;0.096;2022-12-24T07:25:15;10.85;;;7.30;;
57483;SDS011;65488;43.212;0.096;2022-12-24T07:27:40;15.77;;;9.35;;
57483;SDS011;65488;43.212;0.096;2022-12-24T07:30:05;12.45;;;7.97;;
57483;SDS011;65488;43.212;0.096;2022-12-24T07:32:31;11.13;;;6.35;;
57483;SDS011;65488;43.212;0.096;2022-12-24T07:34:56;7.47;;;4.30;;
57483;SDS011;65488;43.212;0.096;2022-12-24T07:37:23;7.55;;;4.00;;
57483;SDS011;65488;43.212;0.096;2022-12-24T07:39:48;4.53;;;3.35;;
57483;SDS011;65488;43.212;0.096;2022-12-24T07:42:14;4.63;;;2.70;;
57483;SDS011;65488;43.212;0.096;2022-12-24T07:44:39;4.03;;;3.10;;
57483;SDS011;65488;43.212;0.096;2022-12-24T07:47:04;4.95;;;2.65;;
57483;SDS011;65488;43.212;0.096;2022-12-24T07:49:30;5.75;;;3.47;;
57483;SDS011;65488;43.212;0.096;2022-12-24T07:51:55;6.53;;;4.05;;
57483;SDS011;65488;43.212;0.096;2022-12-24T07:54:20;4.65;;;3.67;;
57483;SDS011;65488;43.212;0.096;2022-12-24T07:56:45;5.03;;;3.58;;
57483;SDS011;65488;43.212;0.096;2022-12-24T07:59:11;5.03;;;3.55;;
57483;SDS011;65488;43.212;0.096;2022-12-24T08:01:37;8.45;;;3.78;;
57483;SDS011;65488;43.212;0.096;2022-12-24T08:04:02;6.18;;;3.65;;
57483;SDS011;65488;43.212;0.096;2022-12-24T08:06:28;10.55;;;5.57;;
57483;SDS011;65488;43.212;0.096;2022-12-24T08:08:53;5.05;;;4.00;;
57483;SDS011;65488;43.212;0.096;2022-12-24T08:11:18;8.38;;;5.68;;
57483;SDS011;65488;43.212;0.096;2022-12-24T08:13:43;13.80;;;6.97;;
57483;SDS011;65488;43.212;0.096;2022-12-24T08:16:09;15.48;;;8.07;;
57483;SDS011;65488;43.212;0.096;2022-12-24T08:18:34;16.83;;;7.78;;
57483;SDS011;65488;43.212;0.096;2022-12-24T08:20:59;15.35;;;8.50;;
57483;SDS011;65488;43.212;0.096;2022-12-24T08:23:24;14.82;;;8.05;;
57483;SDS011;65488;43.212;0.096;2022-12-24T08:25:50;15.52;;;8.07;;
57483;SDS011;65488;43.212;0.096;2022-12-24T08:28:16;14.57;;;8.98;;
57483;SDS011;65488;43.212;0.096;2022-12-24T08:30:42;22.13;;;9.68;;
57483;SDS011;65488;43.212;0.096;2022-12-24T08:33:07;20.27;;;10.77;;
57483;SDS011;65488;43.212;0.096;2022-12-24T08:35:32;23.15;;;11.15;;
57483;SDS011;65488;43.212;0.096;2022-12-24T08:37:58;20.33;;;10.68;;
57483;SDS011;65488;43.212;0.096;2022-12-24T08:40:23;22.73;;;10.20;;
57483;SDS011;65488;43.212;0.096;2022-12-24T08:42:48;16.67;;;9.00;;
57483;SDS011;65488;43.212;0.096;2022-12-24T08:45:13;18.27;;;8.07;;
57483;SDS011;65488;43.212;0.096;2022-12-24T08:47:39;13.60;;;7.32;;
57483;SDS011;65488;43.212;0.096;2022-12-24T08:50:04;12.35;;;6.40;;
57483;SDS011;65488;43.212;0.096;2022-12-24T08:52:30;11.68;;;6.25;;
57483;SDS011;65488;43.212;0.096;2022-12-24T08:54:55;12.50;;;6.82;;
57483;SDS011;65488;43.212;0.096;2022-12-24T08:57:20;8.98;;;6.25;;
57483;SDS011;65488;43.212;0.096;2022-12-24T08:59:46;10.30;;;6.15;;
57483;SDS011;65488;43.212;0.096;2022-12-24T09:02:11;10.00;;;5.03;;
57483;SDS011;65488;43.212;0.096;2022-12-24T09:04:37;5.78;;;4.55;;
57483;SDS011;65488;43.212;0.096;2022-12-24T09:07:04;7.40;;;4.70;;
57483;SDS011;65488;43.212;0.096;2022-12-24T09:09:29;11.68;;;6.82;;
57483;SDS011;65488;43.212;0.096;2022-12-24T09:11:54;10.30;;;6.00;;
57483;SDS011;65488;43.212;0.096;2022-12-24T09:14:19;11.75;;;7.20;;
57483;SDS011;65488;43.212;0.096;2022-12-24T09:16:45;9.48;;;6.30;;
57483;SDS011;65488;43.212;0.096;2022-12-24T09:19:10;8.93;;;6.30;;
57483;SDS011;65488;43.212;0.096;2022-12-24T09:21:35;8.73;;;5.57;;
57483;SDS011;65488;43.212;0.096;2022-12-24T09:24:02;9.68;;;5.20;;
57483;SDS011;65488;43.212;0.096;2022-12-24T09:26:27;7.80;;;5.18;;
57483;SDS011;65488;43.212;0.096;2022-12-24T09:28:55;5.07;;;3.50;;
57483;SDS011;65488;43.212;0.096;2022-12-24T09:31:21;5.47;;;3.40;;
57483;SDS011;65488;43.212;0.096;2022-12-24T09:33:46;7.13;;;2.72;;
57483;SDS011;65488;43.212;0.096;2022-12-24T09:36:12;4.18;;;2.60;;
57483;SDS011;65488;43.212;0.096;2022-12-24T09:38:38;3.28;;;2.58;;
57483;SDS011;65488;43.212;0.096;2022-12-24T09:43:44;5.65;;;2.97;;
57483;SDS011;65488;43.212;0.096;2022-12-24T09:46:16;4.38;;;2.95;;
57483;SDS011;65488;43.212;0.096;2022-12-24T09:48:45;4.32;;;2.80;;
57483;SDS011;65488;43.212;0.096;2022-12-24T09:51:24;2.90;;;2.30;;
57483;SDS011;65488;43.212;0.096;2022-12-24T09:53:53;8.18;;;2.50;;
57483;SDS011;65488;43.212;0.096;2022-12-24T09:56:20;3.05;;;2.10;;
57483;SDS011;65488;43.212;0.096;2022-12-24T09:58:47;2.63;;;1.90;;
57483;SDS011;65488;43.212;0.096;2022-12-24T10:01:14;3.95;;;1.70;;
57483;SDS011;65488;43.212;0.096;2022-12-24T10:03:40;2.47;;;2.28;;
57483;SDS011;65488;43.212;0.096;2022-12-24T10:06:13;3.90;;;2.00;;
57483;SDS011;65488;43.212;0.096;2022-12-24T10:16:20;3.17;;;1.95;;
57483;SDS011;65488;43.212;0.096;2022-12-24T10:23:57;2.67;;;2.08;;
57483;SDS011;65488;43.212;0.096;2022-12-24T10:26:25;3.75;;;2.08;;
57483;SDS011;65488;43.212;0.096;2022-12-24T10:31:28;2.15;;;1.80;;
57483;SDS011;65488;43.212;0.096;2022-12-24T10:34:02;3.75;;;1.90;;
57483;SDS011;65488;43.212;0.096;2022-12-24T10:36:30;3.30;;;2.30;;
57483;SDS011;65488;43.212;0.096;2022-12-24T10:38:56;4.60;;;3.55;;
57483;SDS011;65488;43.212;0.096;2022-12-24T10:41:21;5.97;;;3.58;;
57483;SDS011;65488;43.212;0.096;2022-12-24T10:43:47;4.80;;;4.00;;
57483;SDS011;65488;43.212;0.096;2022-12-24T10:46:33;5.20;;;4.30;;
57483;SDS011;65488;43.212;0.096;2022-12-24T10:49:01;6.20;;;5.13;;
57483;SDS011;65488;43.212;0.096;2022-12-24T10:51:39;6.07;;;5.45;;
57483;SDS011;65488;43.212;0.096;2022-12-24T10:54:07;6.53;;;5.03;;
57483;SDS011;65488;43.212;0.096;2022-12-24T10:56:39;7.32;;;5.38;;
57483;SDS011;65488;43.212;0.096;2022-12-24T10:59:05;6.15;;;4.90;;
57483;SDS011;65488;43.212;0.096;2022-12-24T11:01:44;6.10;;;4.95;;
57483;SDS011;65488;43.212;0.096;2022-12-24T11:04:16;8.88;;;5.07;;
57483;SDS011;65488;43.212;0.096;2022-12-24T11:09:37;6.22;;;4.90;;
57483;SDS011;65488;43.212;0.096;2022-12-24T11:12:05;6.45;;;4.75;;
57483;SDS011;65488;43.212;0.096;2022-12-24T11:14:38;6.05;;;4.88;;
57483;SDS011;65488;43.212;0.096;2022-12-24T11:17:04;5.95;;;4.72;;
57483;SDS011;65488;43.212;0.096;2022-12-24T11:19:30;5.53;;;4.20;;
57483;SDS011;65488;43.212;0.096;2022-12-24T11:22:00;8.55;;;4.28;;
57483;SDS011;65488;43.212;0.096;2022-12-24T11:24:27;4.75;;;4.20;;
57483;SDS011;65488;43.212;0.096;2022-12-24T11:26:53;6.78;;;4.20;;
57483;SDS011;65488;43.212;0.096;2022-12-24T11:31:44;7.32;;;3.92;;
57483;SDS011;65488;43.212;0.096;2022-12-24T11:34:17;8.40;;;3.95;;
57483;SDS011;65488;43.212;0.096;2022-12-24T11:36:42;5.35;;;3.58;;
57483;SDS011;65488;43.212;0.096;2022-12-24T11:39:09;4.53;;;3.90;;
57483;SDS011;65488;43.212;0.096;2022-12-24T11:41:41;5.60;;;4.05;;
57483;SDS011;65488;43.212;0.096;2022-12-24T11:44:06;4.75;;;4.00;;
57483;SDS011;65488;43.212;0.096;2022-12-24T11:46:36;4.63;;;3.60;;
57483;SDS011;65488;43.212;0.096;2022-12-24T11:49:11;5.37;;;3.80;;
57483;SDS011;65488;43.212;0.096;2022-12-24T11:51:38;5.75;;;4.00;;
57483;SDS011;65488;43.212;0.096;2022-12-24T11:54:21;5.97;;;3.80;;
57483;SDS011;65488;43.212;0.096;2022-12-24T11:56:48;5.45;;;3.55;;
57483;SDS011;65488;43.212;0.096;2022-12-24T12:01:49;6.10;;;3.70;;
57483;SDS011;65488;43.212;0.096;2022-12-24T12:04:18;4.22;;;3.65;;
57483;SDS011;65488;43.212;0.096;2022-12-24T12:06:46;4.97;;;3.92;;
57483;SDS011;65488;43.212;0.096;2022-12-24T12:09:20;6.15;;;3.78;;
57483;SDS011;65488;43.212;0.096;2022-12-24T12:11:57;4.70;;;3.70;;
57483;SDS011;65488;43.212;0.096;2022-12-24T12:14:29;5.55;;;3.85;;
57483;SDS011;65488;43.212;0.096;2022-12-24T12:19:26;3.10;;;2.85;;
57483;SDS011;65488;43.212;0.096;2022-12-24T12:21:52;3.92;;;3.30;;
57483;SDS011;65488;43.212;0.096;2022-12-24T12:24:21;3.50;;;3.20;;
57483;SDS011;65488;43.212;0.096;2022-12-24T12:26:53;4.97;;;3.80;;
57483;SDS011;65488;43.212;0.096;2022-12-24T12:29:25;5.35;;;3.88;;
57483;SDS011;65488;43.212;0.096;2022-12-24T12:31:54;5.20;;;3.30;;
57483;SDS011;65488;43.212;0.096;2022-12-24T12:34:26;5.63;;;3.22;;
57483;SDS011;65488;43.212;0.096;2022-12-24T12:36:55;3.45;;;2.92;;
57483;SDS011;65488;43.212;0.096;2022-12-24T12:39:22;4.95;;;3.05;;
57483;SDS011;65488;43.212;0.096;2022-12-24T12:51:55;3.85;;;3.10;;
57483;SDS011;65488;43.212;0.096;2022-12-24T12:57:10;4.15;;;2.55;;
57483;SDS011;65488;43.212;0.096;2022-12-24T12:59:39;3.17;;;2.60;;
57483;SDS011;65488;43.212;0.096;2022-12-24T13:10:01;4.35;;;3.15;;
57483;SDS011;65488;43.212;0.096;2022-12-24T13:17:41;4.75;;;3.33;;
57483;SDS011;65488;43.212;0.096;2022-12-24T13:20:24;4.03;;;2.85;;
57483;SDS011;65488;43.212;0.096;2022-12-24T13:22:58;3.50;;;2.58;;
57483;SDS011;65488;43.212;0.096;2022-12-24T13:25:44;8.38;;;3.15;;
57483;SDS011;65488;43.212;0.096;2022-12-24T13:30:45;3.30;;;2.70;;
57483;SDS011;65488;43.212;0.096;2022-12-24T13:33:11;3.35;;;2.90;;
57483;SDS011;65488;43.212;0.096;2022-12-24T13:35:37;5.75;;;3.10;;
57483;SDS011;65488;43.212;0.096;2022-12-24T13:44:35;3.38;;;2.45;;
57483;SDS011;65488;43.212;0.096;2022-12-24T13:49:11;3.10;;;2.60;;
57483;SDS011;65488;43.212;0.096;2022-12-24T13:51:36;5.60;;;2.75;;
57483;SDS011;65488;43.212;0.096;2022-12-24T13:54:01;4.32;;;2.30;;
57483;SDS011;65488;43.212;0.096;2022-12-24T13:56:27;5.22;;;2.22;;
57483;SDS011;65488;43.212;0.096;2022-12-24T13:59:38;2.65;;;2.13;;
57483;SDS011;65488;43.212;0.096;2022-12-24T14:01:39;4.93;;;2.45;;
57483;SDS011;65488;43.212;0.096;2022-12-24T14:04:06;3.83;;;1.88;;
57483;SDS011;65488;43.212;0.096;2022-12-24T14:06:37;2.17;;;1.90;;
57483;SDS011;65488;43.212;0.096;2022-12-24T14:09:10;3.27;;;2.33;;
57483;SDS011;65488;43.212;0.096;2022-12-24T14:14:30;3.80;;;2.10;;
57483;SDS011;65488;43.212;0.096;2022-12-24T14:16:57;4.72;;;2.20;;
57483;SDS011;65488;43.212;0.096;2022-12-24T14:19:24;2.90;;;1.92;;
57483;SDS011;65488;43.212;0.096;2022-12-24T14:24:25;3.75;;;2.08;;
57483;SDS011;65488;43.212;0.096;2022-12-24T14:27:37;3.25;;;2.67;;
57483;SDS011;65488;43.212;0.096;2022-12-24T14:29:43;3.05;;;2.28;;
57483;SDS011;65488;43.212;0.096;2022-12-24T14:34:34;2.67;;;1.90;;
57483;SDS011;65488;43.212;0.096;2022-12-24T14:37:00;2.88;;;2.00;;
57483;SDS011;65488;43.212;0.096;2022-12-24T14:39:31;3.15;;;2.05;;
57483;SDS011;65488;43.212;0.096;2022-12-24T14:54:22;2.60;;;2.00;;
57483;SDS011;65488;43.212;0.096;2022-12-24T14:59:41;2.88;;;1.90;;
57483;SDS011;65488;43.212;0.096;2022-12-24T15:04:45;3.35;;;2.10;;
57483;SDS011;65488;43.212;0.096;2022-12-24T15:07:10;2.95;;;2.28;;
57483;SDS011;65488;43.212;0.096;2022-12-24T15:09:36;2.65;;;1.90;;
57483;SDS011;65488;43.212;0.096;2022-12-24T15:12:05;4.70;;;2.15;;
57483;SDS011;65488;43.212;0.096;2022-12-24T15:14:31;2.97;;;2.30;;
57483;SDS011;65488;43.212;0.096;2022-12-24T15:17:01;3.35;;;2.20;;
57483;SDS011;65488;43.212;0.096;2022-12-24T15:21:55;3.00;;;1.80;;
57483;SDS011;65488;43.212;0.096;2022-12-24T15:24:31;2.92;;;2.17;;
57483;SDS011;65488;43.212;0.096;2022-12-24T15:26:57;3.50;;;2.17;;
57483;SDS011;65488;43.212;0.096;2022-12-24T15:29:23;3.38;;;2.00;;
57483;SDS011;65488;43.212;0.096;2022-12-24T15:31:56;3.30;;;1.90;;
57483;SDS011;65488;43.212;0.096;2022-12-24T15:34:26;3.63;;;2.33;;
57483;SDS011;65488;43.212;0.096;2022-12-24T15:36:52;3.60;;;2.05;;
57483;SDS011;65488;43.212;0.096;2022-12-24T15:39:24;3.30;;;2.17;;
57483;SDS011;65488;43.212;0.096;2022-12-24T15:41:49;4.70;;;2.40;;
57483;SDS011;65488;43.212;0.096;2022-12-24T15:44:35;4.72;;;2.35;;
57483;SDS011;65488;43.212;0.096;2022-12-24T15:47:01;6.18;;;2.22;;
57483;SDS011;65488;43.212;0.096;2022-12-24T15:49:27;4.60;;;2.78;;
57483;SDS011;65488;43.212;0.096;2022-12-24T15:52:00;5.70;;;2.90;;
57483;SDS011;65488;43.212;0.096;2022-12-24T15:54:26;5.05;;;3.03;;
57483;SDS011;65488;43.212;0.096;2022-12-24T15:56:51;5.72;;;3.30;;
57483;SDS011;65488;43.212;0.096;2022-12-24T15:59:35;6.13;;;3.33;;
57483;SDS011;65488;43.212;0.096;2022-12-24T16:02:25;8.18;;;3.28;;
57483;SDS011;65488;43.212;0.096;2022-12-24T16:04:51;4.40;;;3.17;;
57483;SDS011;65488;43.212;0.096;2022-12-24T16:07:26;7.63;;;3.53;;
57483;SDS011;65488;43.212;0.096;2022-12-24T16:10:22;6.65;;;3.20;;
57483;SDS011;65488;43.212;0.096;2022-12-24T16:12:47;6.93;;;3.75;;
57483;SDS011;65488;43.212;0.096;2022-12-24T16:15:12;5.20;;;3.47;;
57483;SDS011;65488;43.212;0.096;2022-12-24T16:17:38;5.85;;;3.40;;
57483;SDS011;65488;43.212;0.096;2022-12-24T16:20:05;7.82;;;3.45;;
57483;SDS011;65488;43.212;0.096;2022-12-24T16:22:31;6.53;;;3.40;;
57483;SDS011;65488;43.212;0.096;2022-12-24T16:25:01;6.63;;;3.58;;
57483;SDS011;65488;43.212;0.096;2022-12-24T16:27:27;5.80;;;3.08;;
57483;SDS011;65488;43.212;0.096;2022-12-24T16:29:52;9.05;;;3.70;;
57483;SDS011;65488;43.212;0.096;2022-12-24T16:32:36;9.27;;;3.90;;
57483;SDS011;65488;43.212;0.096;2022-12-24T16:35:02;4.72;;;2.92;;
57483;SDS011;65488;43.212;0.096;2022-12-24T16:37:28;6.32;;;3.60;;
57483;SDS011;65488;43.212;0.096;2022-12-24T16:39:53;9.93;;;3.70;;
57483;SDS011;65488;43.212;0.096;2022-12-24T16:42:18;9.20;;;3.33;;
57483;SDS011;65488;43.212;0.096;2022-12-24T16:45:03;12.32;;;4.40;;